Time;durP1;ratioP1;P1;durP2;ratioP2;P2;SDS_P1;SDS_P2;PMS_P1;PMS_P2;Temp;Humidity;BMP_temperature;BMP_pressure;BME280_temperature;BME280_humidity;BME280_pressure;Samples;Min_cycle;Max_cycle;Signal;HPM_P1;HPM_P2
2023/04/14 04:00:55;;;;;;;1.27;1.25;;;4.50;99.90;;;;;;5612998;23;20245;-70
2023/04/14 04:03:23;;;;;;;1.80;1.73;;;4.50;99.90;;;;;;4915416;29;20302;-69
2023/04/14 04:05:50;;;;;;;1.67;1.58;;;4.50;99.90;;;;;;4917700;29;20211;-68
2023/04/14 04:08:19;;;;;;;1.70;1.70;;;4.50;99.90;;;;;;4919103;29;20234;-69
2023/04/14 04:10:48;;;;;;;1.30;1.30;;;4.50;99.90;;;;;;4911941;29;20230;-69
2023/04/14 04:13:17;;;;;;;1.73;1.63;;;4.50;99.90;;;;;;4920008;29;20202;-69
2023/04/14 04:15:45;;;;;;;0.70;0.70;;;4.40;99.90;;;;;;4925568;29;20221;-68
2023/04/14 04:18:16;;;;;;;0.82;0.82;;;4.40;99.90;;;;;;4920184;29;20209;-69
2023/04/14 04:20:45;;;;;;;1.77;1.00;;;4.40;99.90;;;;;;4921802;29;20237;-69
2023/04/14 04:23:13;;;;;;;2.58;1.60;;;4.40;99.90;;;;;;4922197;29;20217;-69
2023/04/14 04:25:41;;;;;;;1.25;1.17;;;4.50;99.90;;;;;;4932522;23;20236;-68
2023/04/14 04:28:08;;;;;;;0.65;0.65;;;4.50;99.90;;;;;;4923566;29;20582;-69
2023/04/14 04:30:39;;;;;;;1.02;1.00;;;4.50;99.90;;;;;;4926868;29;20209;-69
2023/04/14 04:33:06;;;;;;;1.00;1.00;;;4.50;99.90;;;;;;4910256;29;20670;-69
2023/04/14 04:35:36;;;;;;;2.10;1.27;;;4.50;99.90;;;;;;4908771;29;20271;-70
2023/04/14 04:38:04;;;;;;;2.75;2.38;;;4.50;99.90;;;;;;4902023;29;20228;-70
2023/04/14 04:40:35;;;;;;;1.15;0.90;;;4.50;99.90;;;;;;4896054;29;20314;-70
2023/04/14 04:43:02;;;;;;;2.33;1.77;;;4.50;99.90;;;;;;4897233;29;20211;-70
2023/04/14 04:45:44;;;;;;;3.38;1.02;;;4.50;99.90;;;;;;4903461;29;20226;-70
2023/04/14 04:48:10;;;;;;;1.13;1.13;;;4.50;99.90;;;;;;4898730;29;20214;-70
2023/04/14 04:50:40;;;;;;;1.35;1.33;;;4.50;99.90;;;;;;4898231;29;20218;-68
2023/04/14 04:53:07;;;;;;;1.10;1.10;;;4.60;99.90;;;;;;4892703;29;20260;-69
2023/04/14 04:55:34;;;;;;;2.78;2.67;;;4.60;99.90;;;;;;4898008;29;20231;-70
2023/04/14 04:58:00;;;;;;;3.30;3.13;;;4.60;99.90;;;;;;4891625;29;20236;-70
2023/04/14 05:00:27;;;;;;;4.57;4.13;;;4.70;99.90;;;;;;4895664;29;20203;-70
2023/04/14 05:02:54;;;;;;;2.67;2.58;;;4.70;99.90;;;;;;4894064;29;20223;-69
2023/04/14 05:05:21;;;;;;;1.27;1.27;;;4.70;99.90;;;;;;4897909;29;20241;-68
2023/04/14 05:07:49;;;;;;;2.58;2.47;;;4.80;99.90;;;;;;4895510;29;20211;-70
2023/04/14 05:10:16;;;;;;;2.20;2.08;;;4.80;99.90;;;;;;4902850;29;20314;-70
2023/04/14 05:12:42;;;;;;;1.23;1.23;;;4.80;99.90;;;;;;4904226;29;20215;-71
2023/04/14 05:15:10;;;;;;;3.40;2.20;;;4.80;99.90;;;;;;4890250;29;20230;-70
2023/04/14 05:17:37;;;;;;;1.88;1.77;;;4.80;99.90;;;;;;4905609;29;20672;-69
2023/04/14 05:20:05;;;;;;;1.35;1.35;;;4.90;99.90;;;;;;4897957;29;20203;-71
2023/04/14 05:22:32;;;;;;;1.20;1.20;;;4.90;99.90;;;;;;4892799;29;20629;-70
2023/04/14 05:25:00;;;;;;;3.15;2.90;;;4.90;99.90;;;;;;4910610;29;20230;-70
2023/04/14 05:27:26;;;;;;;2.60;2.35;;;5.00;99.90;;;;;;4898901;29;20669;-69
2023/04/14 05:29:53;;;;;;;3.55;3.40;;;5.10;99.90;;;;;;4907929;29;20230;-70
2023/04/14 05:32:20;;;;;;;2.20;1.88;;;5.20;99.90;;;;;;4889806;29;20227;-70
2023/04/14 05:34:47;;;;;;;2.55;2.35;;;5.20;99.90;;;;;;4891922;29;20237;-70
2023/04/14 05:37:14;;;;;;;1.33;1.33;;;5.30;99.90;;;;;;4894989;29;20203;-70
2023/04/14 05:39:41;;;;;;;5.45;4.28;;;5.40;99.90;;;;;;4902876;29;20614;-69
2023/04/14 05:42:09;;;;;;;4.22;2.10;;;5.40;99.90;;;;;;4883735;29;20218;-70
2023/04/14 05:44:36;;;;;;;2.97;2.80;;;5.50;99.90;;;;;;4898802;29;20222;-69
2023/04/14 05:47:02;;;;;;;4.57;3.40;;;5.60;99.90;;;;;;4893646;29;20223;-70
2023/04/14 05:49:29;;;;;;;2.60;2.50;;;5.60;99.90;;;;;;4902989;29;20603;-69
2023/04/14 05:51:56;;;;;;;1.90;1.80;;;5.80;99.90;;;;;;4892781;29;20218;-70
2023/04/14 05:54:23;;;;;;;6.32;3.63;;;5.80;99.90;;;;;;4890086;29;20211;-70
2023/04/14 05:56:49;;;;;;;6.90;3.05;;;5.90;99.90;;;;;;4899301;29;20234;-70
2023/04/14 05:59:17;;;;;;;4.65;4.32;;;6.00;99.90;;;;;;4896814;29;20226;-71
2023/04/14 06:01:44;;;;;;;4.28;3.97;;;6.10;99.90;;;;;;4889318;29;20609;-71
2023/04/14 06:04:11;;;;;;;3.25;3.05;;;6.20;99.90;;;;;;4891619;29;20215;-71
2023/04/14 06:06:37;;;;;;;1.98;1.55;;;6.20;99.90;;;;;;4895743;29;20227;-70
2023/04/14 06:09:04;;;;;;;3.40;2.90;;;6.30;99.90;;;;;;4893839;29;20231;-70
2023/04/14 06:11:31;;;;;;;5.90;3.45;;;6.40;99.90;;;;;;4895592;29;20203;-70
2023/04/14 06:14:00;;;;;;;3.50;3.25;;;6.50;99.90;;;;;;4903780;29;20584;-70
2023/04/14 06:16:28;;;;;;;4.45;4.15;;;6.60;99.90;;;;;;4899690;29;20254;-70
2023/04/14 06:18:55;;;;;;;4.22;2.95;;;6.60;99.90;;;;;;4901160;29;20211;-68
2023/04/14 06:21:22;;;;;;;2.85;2.75;;;6.70;99.90;;;;;;4900008;29;20281;-68
2023/04/14 06:23:48;;;;;;;3.65;3.45;;;6.70;99.90;;;;;;4896721;29;20668;-70
2023/04/14 06:26:15;;;;;;;2.70;2.50;;;6.80;99.90;;;;;;4898187;29;20244;-71
2023/04/14 06:28:42;;;;;;;4.07;3.67;;;6.90;99.90;;;;;;4898621;29;20204;-70
2023/04/14 06:31:09;;;;;;;3.42;3.20;;;6.90;99.90;;;;;;4900891;29;20207;-69
2023/04/14 06:33:37;;;;;;;5.80;3.22;;;7.00;99.90;;;;;;4890938;29;20215;-71
2023/04/14 06:36:04;;;;;;;11.35;4.07;;;7.00;99.90;;;;;;4904479;29;20238;-70
2023/04/14 06:38:30;;;;;;;3.58;2.65;;;7.10;99.90;;;;;;4893470;29;20255;-71
2023/04/14 06:40:57;;;;;;;6.30;3.90;;;7.20;99.90;;;;;;4903085;29;20222;-71
2023/04/14 06:43:24;;;;;;;2.60;2.40;;;7.20;99.90;;;;;;4900342;29;20218;-69
2023/04/14 06:45:51;;;;;;;3.08;2.60;;;7.30;99.90;;;;;;4903948;29;20241;-70
2023/04/14 06:48:17;;;;;;;2.35;2.10;;;7.30;99.90;;;;;;4900416;29;20210;-68
2023/04/14 06:50:53;;;;;;;2.50;2.40;;;7.40;99.90;;;;;;4893739;29;20243;-70
2023/04/14 06:53:19;;;;;;;4.82;2.08;;;7.40;99.90;;;;;;4896813;29;20213;-70
2023/04/14 06:55:46;;;;;;;1.98;1.88;;;7.50;99.90;;;;;;4894876;29;20336;-69
2023/04/14 06:58:13;;;;;;;3.03;2.83;;;7.50;99.90;;;;;;4894964;29;20679;-67
2023/04/14 07:00:39;;;;;;;1.85;1.75;;;7.50;99.90;;;;;;4882112;29;20244;-68
2023/04/14 07:03:06;;;;;;;2.08;1.98;;;7.50;99.90;;;;;;4901562;29;20212;-69
2023/04/14 07:05:33;;;;;;;1.52;1.45;;;7.60;99.90;;;;;;4901606;29;20234;-68
2023/04/14 07:08:01;;;;;;;2.10;1.90;;;7.70;99.90;;;;;;4889351;29;20229;-68
2023/04/14 07:10:28;;;;;;;2.22;2.13;;;7.70;99.90;;;;;;4889296;29;20242;-69
2023/04/14 07:12:54;;;;;;;2.03;2.00;;;7.70;99.90;;;;;;4913063;29;20207;-69
2023/04/14 07:15:22;;;;;;;2.10;1.95;;;7.80;99.90;;;;;;4900013;29;20688;-68
2023/04/14 07:17:49;;;;;;;2.55;2.45;;;7.80;99.90;;;;;;4902447;29;20230;-67
2023/04/14 07:20:15;;;;;;;0.90;0.90;;;7.80;99.90;;;;;;4903225;29;20211;-69
2023/04/14 07:22:42;;;;;;;3.40;3.10;;;7.80;99.90;;;;;;4902356;29;20210;-69
2023/04/14 07:25:11;;;;;;;1.55;1.50;;;7.90;99.90;;;;;;4901957;29;20242;-68
2023/04/14 07:27:37;;;;;;;2.88;2.65;;;8.00;99.90;;;;;;4903183;29;20217;-69
2023/04/14 07:30:05;;;;;;;1.45;1.35;;;8.00;99.90;;;;;;4894121;29;20227;-68
2023/04/14 07:32:32;;;;;;;3.60;3.30;;;8.10;99.90;;;;;;4895518;29;20703;-67
2023/04/14 07:34:59;;;;;;;3.45;2.88;;;8.20;99.90;;;;;;4900794;29;20210;-68
2023/04/14 07:37:26;;;;;;;4.13;3.35;;;8.30;99.90;;;;;;4900707;29;20289;-68
2023/04/14 07:39:53;;;;;;;2.70;2.50;;;8.40;99.90;;;;;;4893386;29;20231;-68
2023/04/14 07:42:21;;;;;;;4.90;2.65;;;8.60;99.90;;;;;;4902023;29;20217;-69
2023/04/14 07:44:47;;;;;;;5.00;2.20;;;8.80;99.90;;;;;;4899854;29;20625;-69
2023/04/14 07:47:14;;;;;;;3.38;3.15;;;9.00;99.90;;;;;;4904627;29;20670;-69
2023/04/14 07:49:41;;;;;;;3.40;3.20;;;9.00;99.90;;;;;;4899842;29;20292;-68
2023/04/14 07:52:09;;;;;;;2.00;1.90;;;9.10;99.90;;;;;;4902211;29;20207;-69
2023/04/14 07:54:35;;;;;;;2.35;2.35;;;9.20;99.90;;;;;;4900005;29;20574;-68
2023/04/14 07:57:02;;;;;;;2.10;1.95;;;9.10;99.90;;;;;;4904417;29;20234;-69
2023/04/14 07:59:31;;;;;;;2.17;2.08;;;9.10;99.90;;;;;;4901695;29;20283;-69
2023/04/14 08:01:58;;;;;;;3.05;2.85;;;9.20;99.90;;;;;;4892953;29;20263;-68
2023/04/14 08:04:25;;;;;;;2.33;2.22;;;9.20;99.90;;;;;;4902489;29;20210;-70
2023/04/14 08:06:52;;;;;;;4.38;2.40;;;9.30;99.90;;;;;;4894735;29;20271;-69
2023/04/14 08:09:19;;;;;;;2.35;2.25;;;9.40;99.90;;;;;;4895248;29;20203;-69
2023/04/14 08:11:45;;;;;;;2.47;2.28;;;9.50;99.90;;;;;;4898853;29;20660;-70
2023/04/14 08:14:12;;;;;;;4.15;2.70;;;9.60;99.90;;;;;;4891856;29;20230;-70
2023/04/14 08:16:41;;;;;;;3.67;1.90;;;9.60;99.90;;;;;;4896494;29;20592;-68
2023/04/14 08:19:07;;;;;;;3.08;2.35;;;9.70;99.90;;;;;;4902773;29;20302;-70
2023/04/14 08:21:34;;;;;;;2.22;2.03;;;9.90;99.90;;;;;;4903737;29;20211;-69
2023/04/14 08:24:01;;;;;;;3.13;2.80;;;9.90;99.90;;;;;;4898562;29;20687;-69
2023/04/14 08:26:28;;;;;;;2.35;2.35;;;9.90;99.90;;;;;;4910043;29;20230;-69
2023/04/14 08:28:55;;;;;;;1.63;1.58;;;9.90;99.90;;;;;;4903372;29;20210;-69
2023/04/14 08:31:23;;;;;;;2.33;2.22;;;10.10;99.90;;;;;;4890470;29;20242;-69
2023/04/14 08:33:51;;;;;;;2.47;1.63;;;10.30;99.90;;;;;;4895752;29;20636;-68
2023/04/14 08:36:18;;;;;;;2.78;2.67;;;10.30;99.90;;;;;;4911170;29;20703;-68
2023/04/14 08:38:45;;;;;;;2.03;1.92;;;10.50;99.90;;;;;;4898158;29;20212;-70
2023/04/14 08:41:13;;;;;;;1.30;1.20;;;10.60;99.90;;;;;;4896872;29;20215;-69
2023/04/14 08:43:40;;;;;;;1.95;1.48;;;10.50;99.90;;;;;;4896554;29;20479;-69
2023/04/14 08:46:09;;;;;;;1.83;1.73;;;10.60;99.90;;;;;;4896408;29;20237;-68
2023/04/14 08:48:38;;;;;;;1.02;1.02;;;10.60;99.90;;;;;;4896887;29;20590;-69
2023/04/14 08:51:13;;;;;;;2.03;1.93;;;10.70;99.90;;;;;;4897214;29;20802;-69
2023/04/14 08:53:44;;;;;;;1.88;1.88;;;10.70;99.90;;;;;;4896088;29;20945;-70
2023/04/14 08:56:13;;;;;;;2.17;2.07;;;10.70;99.90;;;;;;4900701;29;20725;-68
2023/04/14 08:58:40;;;;;;;1.50;1.03;;;10.80;99.90;;;;;;4900086;29;20475;-68
2023/04/14 09:01:08;;;;;;;1.07;1.07;;;10.90;99.90;;;;;;4900928;29;20471;-68
2023/04/14 09:03:37;;;;;;;1.90;1.80;;;11.00;99.90;;;;;;4900116;29;20475;-69
2023/04/14 09:06:05;;;;;;;1.53;1.43;;;11.00;99.90;;;;;;4904768;29;20487;-70
2023/04/14 09:08:34;;;;;;;0.40;0.40;;;11.20;99.90;;;;;;4896512;29;20551;-69
2023/04/14 09:11:01;;;;;;;1.10;1.10;;;11.30;99.90;;;;;;4896861;29;21035;-68
2023/04/14 09:13:28;;;;;;;4.10;0.93;;;11.40;99.90;;;;;;4894661;29;20472;-68
2023/04/14 09:15:56;;;;;;;9.03;1.97;;;11.40;99.90;;;;;;4894657;29;20487;-69
2023/04/14 09:18:23;;;;;;;2.73;1.97;;;11.50;99.90;;;;;;4903844;29;20834;-69
2023/04/14 09:20:51;;;;;;;1.20;1.20;;;11.60;99.90;;;;;;4889625;29;20471;-69
2023/04/14 09:23:19;;;;;;;1.63;1.53;;;11.70;99.90;;;;;;4903138;29;20494;-69
2023/04/14 09:25:47;;;;;;;1.13;1.10;;;11.70;99.90;;;;;;4896701;29;20490;-69
2023/04/14 09:28:14;;;;;;;1.07;0.73;;;11.70;99.90;;;;;;4898890;29;20554;-69
2023/04/14 09:30:42;;;;;;;0.90;0.90;;;11.70;99.90;;;;;;4893083;29;20555;-68
2023/04/14 09:33:18;;;;;;;1.80;1.53;;;11.80;99.90;;;;;;4893899;29;20999;-68
2023/04/14 09:35:48;;;;;;;2.03;1.37;;;11.80;99.90;;;;;;4895054;29;20491;-68
2023/04/14 09:38:14;;;;;;;1.20;1.20;;;11.70;99.90;;;;;;4899753;29;20501;-68
2023/04/14 09:40:43;;;;;;;2.40;1.07;;;11.80;99.90;;;;;;4901487;29;20474;-68
2023/04/14 09:43:23;;;;;;;1.00;1.00;;;11.80;99.90;;;;;;4906890;29;20895;-68
2023/04/14 09:45:50;;;;;;;3.80;1.07;;;11.80;99.90;;;;;;4900732;29;21103;-69
2023/04/14 09:48:17;;;;;;;1.17;1.17;;;11.80;99.90;;;;;;4887580;29;20507;-69
2023/04/14 09:51:00;;;;;;;2.53;1.47;;;11.80;99.90;;;;;;4891655;29;20498;-69
2023/04/14 09:53:28;;;;;;;0.80;0.80;;;11.80;99.90;;;;;;4893093;29;20495;-69
2023/04/14 09:55:56;;;;;;;1.03;1.03;;;11.80;99.90;;;;;;4897235;29;20499;-68
2023/04/14 09:58:24;;;;;;;4.30;1.03;;;11.80;99.90;;;;;;4910405;29;20498;-68
2023/04/14 10:00:51;;;;;;;0.70;0.70;;;11.80;99.90;;;;;;4908845;29;20527;-69
2023/04/14 10:03:32;;;;;;;0.70;0.70;;;11.70;99.90;;;;;;4908095;29;20508;-69
2023/04/14 10:06:00;;;;;;;1.70;1.43;;;11.60;99.90;;;;;;4899991;29;20491;-69
2023/04/14 10:08:35;;;;;;;1.35;1.35;;;11.50;99.90;;;;;;4904951;29;20964;-69
2023/04/14 10:11:15;;;;;;;1.00;1.00;;;11.40;99.90;;;;;;4908286;29;20280;-69
2023/04/14 10:13:43;;;;;;;1.63;1.57;;;11.40;99.90;;;;;;4911709;29;20537;-68
2023/04/14 10:16:10;;;;;;;1.53;1.40;;;11.40;99.90;;;;;;4900382;29;20536;-69
2023/04/14 10:18:37;;;;;;;0.77;0.70;;;11.40;99.90;;;;;;4896018;29;20476;-70
2023/04/14 10:21:05;;;;;;;2.47;0.80;;;11.40;99.90;;;;;;4901652;29;20471;-69
2023/04/14 10:23:32;;;;;;;1.00;0.80;;;11.40;99.90;;;;;;4897012;29;20986;-69
2023/04/14 10:26:00;;;;;;;0.80;0.80;;;11.40;99.90;;;;;;4892642;29;20250;-69
2023/04/14 10:28:29;;;;;;;1.90;1.80;;;11.30;99.90;;;;;;4909332;29;20952;-70
2023/04/14 10:30:59;;;;;;;1.02;1.02;;;11.20;99.90;;;;;;4904284;29;20345;-70
2023/04/14 10:33:26;;;;;;;1.20;1.10;;;11.00;99.90;;;;;;4904453;29;20223;-68
2023/04/14 10:35:59;;;;;;;1.85;1.27;;;10.90;99.90;;;;;;4895554;29;20231;-68
2023/04/14 10:38:38;;;;;;;0.73;0.73;;;10.90;99.90;;;;;;4893518;29;20211;-69
2023/04/14 10:41:05;;;;;;;1.75;1.05;;;10.80;99.90;;;;;;4883983;29;20230;-69
2023/04/14 10:43:33;;;;;;;0.77;0.77;;;10.70;99.90;;;;;;4893638;29;20220;-69
2023/04/14 10:46:02;;;;;;;0.50;0.50;;;10.60;99.90;;;;;;4897913;29;20318;-69
2023/04/14 10:48:33;;;;;;;0.90;0.90;;;10.40;99.90;;;;;;4898932;29;20203;-69
2023/04/14 10:51:01;;;;;;;0.70;0.70;;;10.40;99.90;;;;;;4901420;29;20687;-69
2023/04/14 10:53:36;;;;;;;2.50;1.67;;;10.40;99.90;;;;;;4890482;29;20211;-69
2023/04/14 10:56:04;;;;;;;1.95;1.85;;;10.40;99.90;;;;;;4890755;29;20647;-68
2023/04/14 10:58:35;;;;;;;1.58;1.40;;;10.20;99.90;;;;;;4905888;29;20297;-69
2023/04/14 11:01:22;;;;;;;1.48;1.33;;;10.10;99.90;;;;;;4898172;29;20633;-68
2023/04/14 11:03:49;;;;;;;0.70;0.70;;;10.10;99.90;;;;;;4893056;29;20301;-70
2023/04/14 11:06:50;;;;;;;0.95;0.85;;;10.10;99.90;;;;;;4893779;29;20592;-69
2023/04/14 11:09:36;;;;;;;0.88;0.88;;;10.00;99.90;;;;;;4895440;29;20215;-68
2023/04/14 11:12:05;;;;;;;4.25;0.73;;;10.00;99.90;;;;;;4890768;29;20727;-68
2023/04/14 11:14:34;;;;;;;3.35;1.50;;;10.00;99.90;;;;;;4895985;29;20223;-69
2023/04/14 11:17:04;;;;;;;3.70;2.63;;;10.00;99.90;;;;;;4897629;29;20239;-69
2023/04/14 11:19:31;;;;;;;0.82;0.82;;;10.10;99.90;;;;;;4898259;29;20210;-68
2023/04/14 11:21:58;;;;;;;7.05;2.38;;;10.20;99.90;;;;;;4898114;29;20203;-68
2023/04/14 11:24:25;;;;;;;1.60;1.50;;;10.20;99.90;;;;;;4899572;29;20215;-69
2023/04/14 11:26:53;;;;;;;1.20;1.20;;;10.20;99.90;;;;;;4894908;29;20235;-68
2023/04/14 11:29:20;;;;;;;2.53;1.33;;;10.20;99.90;;;;;;4898366;29;20218;-68
2023/04/14 11:31:47;;;;;;;1.85;1.40;;;10.20;99.90;;;;;;4896547;29;20231;-68
2023/04/14 11:34:15;;;;;;;0.88;0.88;;;10.30;99.90;;;;;;4898065;29;20211;-68
2023/04/14 11:36:42;;;;;;;2.08;1.67;;;10.30;99.90;;;;;;4894153;29;20589;-68
2023/04/14 11:39:09;;;;;;;1.23;1.23;;;10.30;99.90;;;;;;4903760;29;20210;-68
2023/04/14 11:41:36;;;;;;;3.25;3.05;;;10.40;99.90;;;;;;4905335;29;20787;-68
2023/04/14 11:44:03;;;;;;;0.73;0.73;;;10.40;99.90;;;;;;4902185;29;20294;-66
2023/04/14 11:46:30;;;;;;;0.75;0.75;;;10.50;99.90;;;;;;4908327;29;20226;-68
2023/04/14 11:48:57;;;;;;;1.10;1.10;;;10.60;99.90;;;;;;4914191;29;20282;-68
2023/04/14 11:51:32;;;;;;;2.45;1.50;;;10.70;99.90;;;;;;4908072;29;20258;-68
2023/04/14 11:54:00;;;;;;;2.13;2.03;;;10.90;99.90;;;;;;4906644;29;20608;-68
2023/04/14 11:56:27;;;;;;;3.60;2.63;;;11.00;99.90;;;;;;4905664;29;20313;-68
2023/04/14 11:59:00;;;;;;;1.98;1.98;;;10.90;99.90;;;;;;4897731;29;20211;-69
2023/04/14 12:01:28;;;;;;;1.60;1.60;;;10.80;99.90;;;;;;4906129;29;20286;-69
2023/04/14 12:03:56;;;;;;;1.67;1.58;;;10.90;99.90;;;;;;4897656;29;20207;-68
2023/04/14 12:06:23;;;;;;;1.15;1.15;;;11.10;99.90;;;;;;4898513;29;20231;-68
2023/04/14 12:08:55;;;;;;;3.08;1.77;;;11.30;99.90;;;;;;4905355;29;20216;-68
2023/04/14 12:11:22;;;;;;;9.87;1.60;;;11.30;99.90;;;;;;4898044;29;20230;-68
2023/04/14 12:13:51;;;;;;;1.27;1.27;;;11.30;99.90;;;;;;4898872;29;20475;-68
2023/04/14 12:16:19;;;;;;;1.80;1.20;;;11.50;99.90;;;;;;4912480;29;20494;-69
2023/04/14 12:18:46;;;;;;;3.90;1.97;;;11.70;99.90;;;;;;4897789;29;20483;-68
2023/04/14 12:21:17;;;;;;;1.90;1.80;;;11.90;99.90;;;;;;4897350;29;21152;-68
2023/04/14 12:23:47;;;;;;;2.10;1.50;;;12.10;99.90;;;;;;4900751;29;20480;-69
2023/04/14 12:26:15;;;;;;;2.50;2.40;;;12.30;99.90;;;;;;4894306;29;20490;-69
2023/04/14 12:28:43;;;;;;;1.33;1.23;;;12.40;99.90;;;;;;4897698;29;20633;-69
2023/04/14 12:31:10;;;;;;;4.13;1.87;;;12.50;99.90;;;;;;4898119;29;20497;-69
2023/04/14 12:33:37;;;;;;;2.43;1.57;;;12.60;99.90;;;;;;4895598;29;20471;-68
2023/04/14 12:36:05;;;;;;;1.17;1.17;;;12.80;99.90;;;;;;4897648;29;20489;-69
2023/04/14 12:38:33;;;;;;;0.90;0.90;;;12.80;99.90;;;;;;4895400;29;20479;-69
2023/04/14 12:41:00;;;;;;;1.00;1.00;;;12.90;99.90;;;;;;4905505;29;20776;-69
2023/04/14 12:43:30;;;;;;;2.10;1.63;;;12.80;99.90;;;;;;4895961;29;20475;-68
2023/04/14 12:45:58;;;;;;;2.47;1.37;;;12.60;99.90;;;;;;4904234;29;20518;-68
2023/04/14 12:48:39;;;;;;;1.33;1.33;;;12.50;99.90;;;;;;4898635;29;20478;-67
2023/04/14 12:51:10;;;;;;;1.50;1.50;;;12.70;99.90;;;;;;4895243;29;20961;-69
2023/04/14 12:53:37;;;;;;;9.07;1.87;;;12.90;99.90;;;;;;4898329;29;20566;-69
2023/04/14 12:56:05;;;;;;;1.83;1.83;;;13.10;99.90;;;;;;4903107;29;21382;-69
2023/04/14 12:58:35;;;;;;;1.03;1.03;;;13.20;99.90;;;;;;4905232;29;20587;-69
2023/04/14 13:01:01;;;;;;;3.27;2.00;;;13.20;99.90;;;;;;4907915;29;20555;-69
2023/04/14 13:03:38;;;;;;;1.50;1.40;;;13.40;99.90;;;;;;4890711;29;20566;-69
2023/04/14 13:06:05;;;;;;;4.73;1.67;;;13.30;99.90;;;;;;4899711;29;20496;-69
2023/04/14 13:08:32;;;;;;;1.40;0.70;;;13.40;99.90;;;;;;4896049;29;20471;-69
2023/04/14 13:10:59;;;;;;;2.00;1.57;;;13.20;99.90;;;;;;4911006;29;20473;-68
2023/04/14 13:13:26;;;;;;;1.40;1.30;;;13.20;99.90;;;;;;4896370;29;20871;-69
2023/04/14 13:15:54;;;;;;;1.67;1.40;;;13.30;99.90;;;;;;4896760;29;20495;-69
2023/04/14 13:18:21;;;;;;;1.80;1.70;;;13.50;99.90;;;;;;4890232;29;20487;-69
2023/04/14 13:20:53;;;;;;;1.67;1.57;;;13.50;99.90;;;;;;4897924;29;20463;-69
2023/04/14 13:23:20;;;;;;;0.70;0.70;;;13.50;99.90;;;;;;4896706;29;20503;-69
2023/04/14 13:25:47;;;;;;;1.30;1.30;;;13.50;99.90;;;;;;4895663;29;20574;-69
2023/04/14 13:28:14;;;;;;;1.23;1.00;;;13.50;99.90;;;;;;4901166;29;20879;-69
2023/04/14 13:30:41;;;;;;;5.43;1.07;;;13.50;99.90;;;;;;4899067;29;20498;-69
2023/04/14 13:33:09;;;;;;;1.27;1.10;;;13.40;99.90;;;;;;4898813;29;20497;-69
2023/04/14 13:35:36;;;;;;;0.87;0.70;;;13.40;99.90;;;;;;4905464;29;20494;-69
2023/04/14 13:38:03;;;;;;;1.37;1.33;;;13.40;99.90;;;;;;4895749;29;20870;-69
2023/04/14 13:40:30;;;;;;;1.17;1.17;;;13.50;99.90;;;;;;4897172;29;20523;-69
2023/04/14 13:42:57;;;;;;;1.20;1.20;;;13.70;99.90;;;;;;4901694;29;20643;-70
2023/04/14 13:45:23;;;;;;;1.20;1.20;;;13.80;99.90;;;;;;4894886;29;20864;-69
2023/04/14 13:47:50;;;;;;;1.35;1.35;;;13.60;99.90;;;;;;4903101;29;20473;-70
2023/04/14 13:50:19;;;;;;;1.00;1.00;;;13.50;99.90;;;;;;4900191;29;20236;-70
2023/04/14 13:52:46;;;;;;;1.50;1.40;;;13.60;99.90;;;;;;4889262;29;20498;-69
2023/04/14 13:55:13;;;;;;;1.60;1.50;;;13.60;99.90;;;;;;4897870;29;20490;-70
2023/04/14 13:57:40;;;;;;;0.80;0.80;;;13.50;99.90;;;;;;4898697;29;20538;-69
2023/04/14 14:00:09;;;;;;;0.80;0.77;;;13.30;99.90;;;;;;4905622;29;20466;-69
2023/04/14 14:02:38;;;;;;;0.67;0.67;;;13.20;99.90;;;;;;4898548;29;20471;-69
2023/04/14 14:05:06;;;;;;;0.93;0.93;;;12.90;99.90;;;;;;4906399;29;20487;-69
2023/04/14 14:07:34;;;;;;;1.07;1.07;;;12.60;99.90;;;;;;4903307;29;20474;-69
2023/04/14 14:10:01;;;;;;;0.30;0.30;;;12.40;99.90;;;;;;4896551;29;20529;-69
2023/04/14 14:12:28;;;;;;;0.57;0.57;;;12.30;99.90;;;;;;4892609;29;20490;-68
2023/04/14 14:14:55;;;;;;;0.40;0.40;;;12.30;99.90;;;;;;4903474;29;20471;-70
2023/04/14 14:17:22;;;;;;;0.80;0.80;;;12.00;99.90;;;;;;4903077;29;20586;-69
2023/04/14 14:19:49;;;;;;;0.83;0.73;;;11.60;99.90;;;;;;4891975;29;20208;-68
2023/04/14 14:22:16;;;;;;;0.88;0.88;;;11.30;99.90;;;;;;4894861;29;20467;-68
2023/04/14 14:24:44;;;;;;;0.70;0.70;;;11.10;99.90;;;;;;4895074;29;20215;-68
2023/04/14 14:27:11;;;;;;;1.40;1.30;;;11.00;99.90;;;;;;4898377;29;20660;-68
2023/04/14 14:29:38;;;;;;;2.10;0.82;;;11.10;99.90;;;;;;4905465;29;20207;-68
2023/04/14 14:32:05;;;;;;;1.25;1.25;;;11.10;99.90;;;;;;4895357;29;20575;-69
2023/04/14 14:34:32;;;;;;;1.27;1.27;;;11.10;99.90;;;;;;4896452;29;20242;-69
2023/04/14 14:36:58;;;;;;;1.50;1.30;;;11.20;99.90;;;;;;4903491;29;20241;-69
2023/04/14 14:39:25;;;;;;;1.60;1.50;;;11.20;99.90;;;;;;4896128;29;20218;-69
2023/04/14 14:41:53;;;;;;;1.92;1.92;;;11.30;99.90;;;;;;4896933;29;20207;-69
2023/04/14 14:44:20;;;;;;;1.40;1.40;;;11.40;99.90;;;;;;4901237;29;20215;-69
2023/04/14 14:46:47;;;;;;;3.00;0.93;;;11.50;99.90;;;;;;4896002;29;20234;-69
2023/04/14 14:49:13;;;;;;;4.40;2.53;;;11.70;99.90;;;;;;4895397;29;20440;-68
2023/04/14 14:51:40;;;;;;;1.10;1.10;;;11.80;99.90;;;;;;4895286;29;20688;-69
2023/04/14 14:54:07;;;;;;;0.80;0.80;;;11.80;99.90;;;;;;4894125;29;20215;-69
2023/04/14 14:56:34;;;;;;;2.42;1.95;;;11.90;99.90;;;;;;4902001;29;20245;-69
2023/04/14 14:59:02;;;;;;;1.88;1.77;;;12.00;99.90;;;;;;4897716;29;20222;-69
2023/04/14 15:01:29;;;;;;;1.95;1.85;;;12.10;99.90;;;;;;4899323;29;20211;-69
2023/04/14 15:03:57;;;;;;;1.73;1.63;;;12.20;99.90;;;;;;4902329;29;20668;-69
2023/04/14 15:06:24;;;;;;;3.27;2.20;;;12.30;99.90;;;;;;4895415;29;20566;-69
2023/04/14 15:08:51;;;;;;;1.20;1.20;;;12.40;99.90;;;;;;4902487;29;20617;-69
2023/04/14 15:11:18;;;;;;;1.93;1.83;;;12.40;99.90;;;;;;4908251;29;20466;-69
2023/04/14 15:13:45;;;;;;;1.00;1.00;;;12.40;99.90;;;;;;4913646;29;20494;-68
2023/04/14 15:16:13;;;;;;;1.50;1.40;;;12.40;99.90;;;;;;4914626;29;20492;-68
2023/04/14 15:18:40;;;;;;;4.77;1.87;;;12.40;99.90;;;;;;4913901;29;20576;-68
2023/04/14 15:21:07;;;;;;;1.58;1.50;;;12.40;99.90;;;;;;4914567;29;20822;-68
2023/04/14 15:23:35;;;;;;;1.05;1.05;;;12.30;99.90;;;;;;4901465;29;20225;-69
2023/04/14 15:26:02;;;;;;;1.42;1.20;;;12.30;99.90;;;;;;4903724;29;20263;-69
2023/04/14 15:28:29;;;;;;;1.25;1.02;;;12.30;99.90;;;;;;4896081;29;20222;-68
2023/04/14 15:30:56;;;;;;;1.17;1.17;;;12.30;99.90;;;;;;4897569;29;20215;-69
2023/04/14 15:33:24;;;;;;;1.57;1.57;;;12.30;99.90;;;;;;4900228;29;20318;-68
2023/04/14 15:35:50;;;;;;;2.10;2.00;;;12.30;99.90;;;;;;4895812;29;20855;-69
2023/04/14 15:38:17;;;;;;;1.25;0.95;;;12.30;99.90;;;;;;4899048;29;20523;-69
2023/04/14 15:40:45;;;;;;;1.90;1.30;;;12.30;99.90;;;;;;4900005;29;20213;-69
2023/04/14 15:43:11;;;;;;;1.33;1.23;;;12.30;99.90;;;;;;4899404;29;20495;-69
2023/04/14 15:45:39;;;;;;;2.20;1.93;;;12.30;99.90;;;;;;4898974;29;20494;-69
2023/04/14 15:48:06;;;;;;;1.63;1.52;;;12.20;99.90;;;;;;4898874;29;20481;-69
2023/04/14 15:50:34;;;;;;;2.70;2.00;;;12.10;99.90;;;;;;4899474;29;20640;-69
2023/04/14 15:53:00;;;;;;;1.70;1.50;;;12.10;99.90;;;;;;4897539;29;20491;-69
2023/04/14 15:55:27;;;;;;;2.70;2.50;;;12.10;99.90;;;;;;4912539;29;20488;-69
2023/04/14 15:57:54;;;;;;;2.23;2.23;;;12.00;99.90;;;;;;4917872;29;20872;-69
2023/04/14 16:00:21;;;;;;;1.30;1.30;;;11.90;99.90;;;;;;4917867;29;20470;-69
2023/04/14 16:02:48;;;;;;;1.75;1.65;;;11.80;99.90;;;;;;4917915;29;20262;-69
2023/04/14 16:05:15;;;;;;;1.35;1.35;;;11.70;99.90;;;;;;4914017;29;20242;-69
2023/04/14 16:07:43;;;;;;;2.53;1.30;;;11.70;99.90;;;;;;4908965;29;20217;-69
2023/04/14 16:10:10;;;;;;;0.97;0.97;;;11.70;99.90;;;;;;4918059;29;20215;-69
2023/04/14 16:12:37;;;;;;;1.15;1.10;;;11.70;99.90;;;;;;4917206;29;20801;-70
2023/04/14 16:15:07;;;;;;;2.05;1.52;;;11.80;99.90;;;;;;4916784;29;20230;-69
2023/04/14 16:17:34;;;;;;;1.53;1.43;;;11.70;99.90;;;;;;4916821;29;20409;-69
2023/04/14 16:20:01;;;;;;;1.58;1.48;;;11.70;99.90;;;;;;4904856;29;20531;-69
2023/04/14 16:22:29;;;;;;;2.87;2.43;;;11.70;99.90;;;;;;4903152;29;20199;-69
2023/04/14 16:24:57;;;;;;;1.33;1.15;;;11.70;99.90;;;;;;4898043;29;20475;-70
2023/04/14 16:27:24;;;;;;;2.25;2.15;;;11.70;99.90;;;;;;4925339;23;20604;-68
2023/04/14 16:29:51;;;;;;;3.03;2.22;;;11.70;99.90;;;;;;4908910;29;20214;-68
2023/04/14 16:32:18;;;;;;;1.55;1.45;;;11.70;99.90;;;;;;4912661;29;20232;-69
2023/04/14 16:34:45;;;;;;;4.78;3.05;;;11.80;99.90;;;;;;4904023;29;20581;-69
2023/04/14 16:37:12;;;;;;;2.22;1.77;;;11.90;99.90;;;;;;4894163;29;20232;-69
2023/04/14 16:39:39;;;;;;;1.38;1.38;;;11.90;99.90;;;;;;4893696;29;20575;-69
2023/04/14 16:42:08;;;;;;;0.60;0.60;;;11.70;99.90;;;;;;4890795;29;20210;-69
2023/04/14 16:44:35;;;;;;;1.27;1.27;;;11.60;99.90;;;;;;4897701;29;20302;-69
2023/04/14 16:47:02;;;;;;;1.15;0.95;;;11.50;99.90;;;;;;4897232;29;20235;-69
2023/04/14 16:49:29;;;;;;;1.75;1.65;;;11.50;99.90;;;;;;4896411;29;20241;-70
2023/04/14 16:51:56;;;;;;;1.05;1.05;;;11.40;99.90;;;;;;4888922;29;20370;-69
2023/04/14 16:54:23;;;;;;;4.78;2.08;;;11.40;99.90;;;;;;4896947;29;20211;-69